sensor_id;sensor_type;location;lat;lon;timestamp;temperature;humidity
64032;DHT22;50278;47.796;11.968;2023-01-28T00:00:47;-1.21;118.99
64032;DHT22;50278;47.796;11.968;2023-01-28T00:03:12;-1.18;118.99
64032;DHT22;50278;47.796;11.968;2023-01-28T00:05:38;-1.16;118.99
64032;DHT22;50278;47.796;11.968;2023-01-28T00:08:03;-1.17;118.99
64032;DHT22;50278;47.796;11.968;2023-01-28T00:10:28;-1.17;118.99
64032;DHT22;50278;47.796;11.968;2023-01-28T00:12:54;-1.20;118.99
64032;DHT22;50278;47.796;11.968;2023-01-28T00:15:19;-1.15;118.99
64032;DHT22;50278;47.796;11.968;2023-01-28T00:17:45;-1.16;118.99
64032;DHT22;50278;47.796;11.968;2023-01-28T00:20:10;-1.17;118.99
64032;DHT22;50278;47.796;11.968;2023-01-28T00:22:36;-1.18;118.99
64032;DHT22;50278;47.796;11.968;2023-01-28T00:25:01;-1.19;118.99
64032;DHT22;50278;47.796;11.968;2023-01-28T00:27:27;-1.12;118.99
64032;DHT22;50278;47.796;11.968;2023-01-28T00:29:52;-1.15;118.99
64032;DHT22;50278;47.796;11.968;2023-01-28T00:32:19;-1.16;118.99
64032;DHT22;50278;47.796;11.968;2023-01-28T00:34:44;-1.14;118.99
64032;DHT22;50278;47.796;11.968;2023-01-28T00:37:09;-1.09;118.99
64032;DHT22;50278;47.796;11.968;2023-01-28T00:39:35;-1.03;118.99
64032;DHT22;50278;47.796;11.968;2023-01-28T00:42:00;-1.05;118.99
64032;DHT22;50278;47.796;11.968;2023-01-28T00:44:26;-1.08;118.99
64032;DHT22;50278;47.796;11.968;2023-01-28T00:46:51;-1.12;118.99
64032;DHT22;50278;47.796;11.968;2023-01-28T00:49:20;-1.09;118.99
64032;DHT22;50278;47.796;11.968;2023-01-28T00:51:46;-1.12;118.99
64032;DHT22;50278;47.796;11.968;2023-01-28T00:54:14;-1.15;118.99
64032;DHT22;50278;47.796;11.968;2023-01-28T00:56:39;-1.20;118.99
64032;DHT22;50278;47.796;11.968;2023-01-28T00:59:05;-1.18;118.99
64032;DHT22;50278;47.796;11.968;2023-01-28T01:01:30;-1.19;118.99
64032;DHT22;50278;47.796;11.968;2023-01-28T01:03:56;-1.14;118.99
64032;DHT22;50278;47.796;11.968;2023-01-28T01:06:31;-1.15;118.99
64032;DHT22;50278;47.796;11.968;2023-01-28T01:08:58;-1.14;118.99
64032;DHT22;50278;47.796;11.968;2023-01-28T01:11:23;-1.12;118.99
64032;DHT22;50278;47.796;11.968;2023-01-28T01:13:56;-1.06;118.99
64032;DHT22;50278;47.796;11.968;2023-01-28T01:16:27;-1.10;118.99
64032;DHT22;50278;47.796;11.968;2023-01-28T01:18:53;-1.06;118.99
64032;DHT22;50278;47.796;11.968;2023-01-28T01:21:20;-1.08;118.99
64032;DHT22;50278;47.796;11.968;2023-01-28T01:23:46;-1.09;118.99
64032;DHT22;50278;47.796;11.968;2023-01-28T01:26:11;-1.06;118.99
64032;DHT22;50278;47.796;11.968;2023-01-28T01:28:37;-1.10;118.99
64032;DHT22;50278;47.796;11.968;2023-01-28T01:31:04;-1.09;118.99
64032;DHT22;50278;47.796;11.968;2023-01-28T01:33:29;-1.09;118.99
64032;DHT22;50278;47.796;11.968;2023-01-28T01:35:56;-1.05;118.99
64032;DHT22;50278;47.796;11.968;2023-01-28T01:38:22;-1.00;118.99
64032;DHT22;50278;47.796;11.968;2023-01-28T01:40:47;-1.10;118.99
64032;DHT22;50278;47.796;11.968;2023-01-28T01:43:20;-1.08;118.99
64032;DHT22;50278;47.796;11.968;2023-01-28T01:45:46;-1.05;118.99
64032;DHT22;50278;47.796;11.968;2023-01-28T01:48:15;-1.14;118.99
64032;DHT22;50278;47.796;11.968;2023-01-28T01:50:46;-1.11;118.99
64032;DHT22;50278;47.796;11.968;2023-01-28T01:53:15;-1.12;118.99
64032;DHT22;50278;47.796;11.968;2023-01-28T01:55:42;-1.08;118.99
64032;DHT22;50278;47.796;11.968;2023-01-28T01:58:10;-1.05;118.99
64032;DHT22;50278;47.796;11.968;2023-01-28T02:00:37;-1.10;118.99
64032;DHT22;50278;47.796;11.968;2023-01-28T02:03:02;-1.11;118.99
64032;DHT22;50278;47.796;11.968;2023-01-28T02:05:28;-1.12;118.99
64032;DHT22;50278;47.796;11.968;2023-01-28T02:07:54;-1.10;118.99
64032;DHT22;50278;47.796;11.968;2023-01-28T02:10:43;-1.08;118.99
64032;DHT22;50278;47.796;11.968;2023-01-28T02:13:08;-1.08;118.99
64032;DHT22;50278;47.796;11.968;2023-01-28T02:15:34;-1.10;118.99
64032;DHT22;50278;47.796;11.968;2023-01-28T02:18:01;-1.05;118.99
64032;DHT22;50278;47.796;11.968;2023-01-28T02:23:37;-1.09;118.99
64032;DHT22;50278;47.796;11.968;2023-01-28T02:26:21;-1.08;118.99
64032;DHT22;50278;47.796;11.968;2023-01-28T02:33:51;-0.98;118.99
64032;DHT22;50278;47.796;11.968;2023-01-28T02:36:23;-0.99;118.99
64032;DHT22;50278;47.796;11.968;2023-01-28T02:38:51;-0.97;118.99
64032;DHT22;50278;47.796;11.968;2023-01-28T02:41:27;-0.99;118.99
64032;DHT22;50278;47.796;11.968;2023-01-28T02:43:53;-0.94;118.99
64032;DHT22;50278;47.796;11.968;2023-01-28T02:49:10;-1.00;118.99
64032;DHT22;50278;47.796;11.968;2023-01-28T02:54:10;-1.00;118.99
64032;DHT22;50278;47.796;11.968;2023-01-28T03:01:53;-0.99;118.99
64032;DHT22;50278;47.796;11.968;2023-01-28T03:06:49;-0.98;118.99
64032;DHT22;50278;47.796;11.968;2023-01-28T03:09:14;-0.98;118.99
64032;DHT22;50278;47.796;11.968;2023-01-28T03:14:39;-1.01;118.99
64032;DHT22;50278;47.796;11.968;2023-01-28T03:17:29;-1.02;118.99
64032;DHT22;50278;47.796;11.968;2023-01-28T03:20:15;-1.03;118.99
64032;DHT22;50278;47.796;11.968;2023-01-28T03:23:00;-1.04;118.99
64032;DHT22;50278;47.796;11.968;2023-01-28T03:25:46;-1.04;118.99
64032;DHT22;50278;47.796;11.968;2023-01-28T03:28:31;-1.06;118.99
64032;DHT22;50278;47.796;11.968;2023-01-28T03:31:17;-1.08;118.99
64032;DHT22;50278;47.796;11.968;2023-01-28T03:34:03;-1.05;118.99
64032;DHT22;50278;47.796;11.968;2023-01-28T03:36:47;-1.09;118.99
64032;DHT22;50278;47.796;11.968;2023-01-28T03:39:46;-1.10;118.99
64032;DHT22;50278;47.796;11.968;2023-01-28T03:42:13;-1.08;118.99
64032;DHT22;50278;47.796;11.968;2023-01-28T03:44:53;-1.10;118.99
64032;DHT22;50278;47.796;11.968;2023-01-28T03:47:23;-1.06;118.99
64032;DHT22;50278;47.796;11.968;2023-01-28T03:49:50;-1.12;118.99
64032;DHT22;50278;47.796;11.968;2023-01-28T03:52:25;-1.14;118.99
64032;DHT22;50278;47.796;11.968;2023-01-28T03:54:54;-1.13;118.99
64032;DHT22;50278;47.796;11.968;2023-01-28T03:57:24;-1.13;118.99
64032;DHT22;50278;47.796;11.968;2023-01-28T03:59:50;-1.13;118.99
64032;DHT22;50278;47.796;11.968;2023-01-28T04:02:17;-1.15;118.99
64032;DHT22;50278;47.796;11.968;2023-01-28T04:04:45;-1.09;118.99
64032;DHT22;50278;47.796;11.968;2023-01-28T04:07:11;-1.12;118.99
64032;DHT22;50278;47.796;11.968;2023-01-28T04:09:57;-1.15;118.99
64032;DHT22;50278;47.796;11.968;2023-01-28T04:12:26;-1.16;118.99
64032;DHT22;50278;47.796;11.968;2023-01-28T04:14:53;-1.18;118.99
64032;DHT22;50278;47.796;11.968;2023-01-28T04:17:26;-1.13;118.99
64032;DHT22;50278;47.796;11.968;2023-01-28T04:19:52;-1.17;118.99
64032;DHT22;50278;47.796;11.968;2023-01-28T04:22:19;-1.16;118.99
64032;DHT22;50278;47.796;11.968;2023-01-28T04:24:44;-1.16;118.99
64032;DHT22;50278;47.796;11.968;2023-01-28T04:27:10;-1.17;118.99
64032;DHT22;50278;47.796;11.968;2023-01-28T04:29:35;-1.13;118.99
64032;DHT22;50278;47.796;11.968;2023-01-28T04:32:19;-1.15;118.99
64032;DHT22;50278;47.796;11.968;2023-01-28T04:35:04;-1.15;118.99
64032;DHT22;50278;47.796;11.968;2023-01-28T04:37:55;-1.18;118.99
64032;DHT22;50278;47.796;11.968;2023-01-28T04:40:27;-1.24;118.99
64032;DHT22;50278;47.796;11.968;2023-01-28T04:43:03;-1.25;118.99
64032;DHT22;50278;47.796;11.968;2023-01-28T04:45:51;-1.23;118.99
64032;DHT22;50278;47.796;11.968;2023-01-28T04:48:39;-1.23;118.99
64032;DHT22;50278;47.796;11.968;2023-01-28T04:51:28;-1.23;118.99
64032;DHT22;50278;47.796;11.968;2023-01-28T04:54:11;-1.23;118.99
64032;DHT22;50278;47.796;11.968;2023-01-28T04:56:37;-1.24;118.99
64032;DHT22;50278;47.796;11.968;2023-01-28T04:59:03;-1.21;118.99
64032;DHT22;50278;47.796;11.968;2023-01-28T05:01:30;-1.27;118.99
64032;DHT22;50278;47.796;11.968;2023-01-28T05:03:55;-1.25;118.99
64032;DHT22;50278;47.796;11.968;2023-01-28T05:06:24;-1.25;118.99
64032;DHT22;50278;47.796;11.968;2023-01-28T05:08:53;-1.26;118.99
64032;DHT22;50278;47.796;11.968;2023-01-28T05:11:20;-1.29;118.99
64032;DHT22;50278;47.796;11.968;2023-01-28T05:13:49;-1.27;118.99
64032;DHT22;50278;47.796;11.968;2023-01-28T05:16:16;-1.24;118.99
64032;DHT22;50278;47.796;11.968;2023-01-28T05:18:42;-1.20;118.99
64032;DHT22;50278;47.796;11.968;2023-01-28T05:21:11;-1.23;118.99
64032;DHT22;50278;47.796;11.968;2023-01-28T05:23:38;-1.31;118.99
64032;DHT22;50278;47.796;11.968;2023-01-28T05:26:04;-1.23;118.99
64032;DHT22;50278;47.796;11.968;2023-01-28T05:28:29;-1.23;118.99
64032;DHT22;50278;47.796;11.968;2023-01-28T05:30:56;-1.25;118.99
64032;DHT22;50278;47.796;11.968;2023-01-28T05:33:26;-1.25;118.99
64032;DHT22;50278;47.796;11.968;2023-01-28T05:35:51;-1.26;118.99
64032;DHT22;50278;47.796;11.968;2023-01-28T05:38:19;-1.29;118.99
64032;DHT22;50278;47.796;11.968;2023-01-28T05:40:45;-1.27;118.99
64032;DHT22;50278;47.796;11.968;2023-01-28T05:43:11;-1.25;118.99
64032;DHT22;50278;47.796;11.968;2023-01-28T05:45:45;-1.21;118.99
64032;DHT22;50278;47.796;11.968;2023-01-28T05:48:18;-1.18;118.99
64032;DHT22;50278;47.796;11.968;2023-01-28T05:50:58;-1.17;118.99
64032;DHT22;50278;47.796;11.968;2023-01-28T05:53:35;-1.14;118.99
64032;DHT22;50278;47.796;11.968;2023-01-28T05:56:00;-1.17;118.99
64032;DHT22;50278;47.796;11.968;2023-01-28T05:58:28;-1.15;118.99
64032;DHT22;50278;47.796;11.968;2023-01-28T06:00:58;-1.17;118.99
64032;DHT22;50278;47.796;11.968;2023-01-28T06:03:29;-1.23;118.99
64032;DHT22;50278;47.796;11.968;2023-01-28T06:05:55;-1.20;118.99
64032;DHT22;50278;47.796;11.968;2023-01-28T06:08:20;-1.21;118.99
64032;DHT22;50278;47.796;11.968;2023-01-28T06:10:46;-1.20;118.99
64032;DHT22;50278;47.796;11.968;2023-01-28T06:13:12;-1.18;118.99
64032;DHT22;50278;47.796;11.968;2023-01-28T06:15:56;-1.19;118.99
64032;DHT22;50278;47.796;11.968;2023-01-28T06:18:36;-1.20;118.99
64032;DHT22;50278;47.796;11.968;2023-01-28T06:21:01;-1.17;118.99
64032;DHT22;50278;47.796;11.968;2023-01-28T06:23:27;-1.19;118.99
64032;DHT22;50278;47.796;11.968;2023-01-28T06:25:53;-1.24;118.99
64032;DHT22;50278;47.796;11.968;2023-01-28T06:28:19;-1.19;118.99
64032;DHT22;50278;47.796;11.968;2023-01-28T06:30:47;-1.20;118.99
64032;DHT22;50278;47.796;11.968;2023-01-28T06:33:12;-1.20;118.99
64032;DHT22;50278;47.796;11.968;2023-01-28T06:35:37;-1.20;118.99
64032;DHT22;50278;47.796;11.968;2023-01-28T06:38:03;-1.20;118.99
64032;DHT22;50278;47.796;11.968;2023-01-28T06:40:28;-1.19;118.99
64032;DHT22;50278;47.796;11.968;2023-01-28T06:42:54;-1.24;118.99
64032;DHT22;50278;47.796;11.968;2023-01-28T06:45:19;-1.23;118.99
64032;DHT22;50278;47.796;11.968;2023-01-28T06:47:44;-1.25;118.99
64032;DHT22;50278;47.796;11.968;2023-01-28T06:50:10;-1.23;118.99
64032;DHT22;50278;47.796;11.968;2023-01-28T06:52:35;-1.20;118.99
64032;DHT22;50278;47.796;11.968;2023-01-28T06:55:02;-1.25;118.99
64032;DHT22;50278;47.796;11.968;2023-01-28T06:57:31;-1.21;118.99
64032;DHT22;50278;47.796;11.968;2023-01-28T07:00:11;-1.20;118.99
64032;DHT22;50278;47.796;11.968;2023-01-28T07:02:37;-1.17;118.99
64032;DHT22;50278;47.796;11.968;2023-01-28T07:05:03;-1.17;118.99
64032;DHT22;50278;47.796;11.968;2023-01-28T07:07:28;-1.15;118.99
64032;DHT22;50278;47.796;11.968;2023-01-28T07:09:54;-1.16;118.99
64032;DHT22;50278;47.796;11.968;2023-01-28T07:12:19;-1.14;118.99
64032;DHT22;50278;47.796;11.968;2023-01-28T07:14:44;-1.13;118.99
64032;DHT22;50278;47.796;11.968;2023-01-28T07:17:10;-1.10;118.99
64032;DHT22;50278;47.796;11.968;2023-01-28T07:19:35;-1.09;118.99
64032;DHT22;50278;47.796;11.968;2023-01-28T07:22:01;-1.06;118.99
64032;DHT22;50278;47.796;11.968;2023-01-28T07:24:27;-1.05;118.99
64032;DHT22;50278;47.796;11.968;2023-01-28T07:26:53;-1.02;118.99
64032;DHT22;50278;47.796;11.968;2023-01-28T07:29:18;-1.01;118.99
64032;DHT22;50278;47.796;11.968;2023-01-28T07:31:44;-0.97;118.99
64032;DHT22;50278;47.796;11.968;2023-01-28T07:34:09;-0.95;118.99
64032;DHT22;50278;47.796;11.968;2023-01-28T07:36:34;-0.98;118.99
64032;DHT22;50278;47.796;11.968;2023-01-28T07:39:00;-0.96;118.99
64032;DHT22;50278;47.796;11.968;2023-01-28T07:41:25;-0.97;118.99
64032;DHT22;50278;47.796;11.968;2023-01-28T07:43:52;-0.91;118.99
64032;DHT22;50278;47.796;11.968;2023-01-28T07:46:17;-0.87;118.99
64032;DHT22;50278;47.796;11.968;2023-01-28T07:48:43;-0.93;118.99
64032;DHT22;50278;47.796;11.968;2023-01-28T07:51:09;-0.88;118.99
64032;DHT22;50278;47.796;11.968;2023-01-28T07:53:34;-0.83;118.99
64032;DHT22;50278;47.796;11.968;2023-01-28T07:56:00;-0.76;118.99
64032;DHT22;50278;47.796;11.968;2023-01-28T07:58:31;-0.76;118.99
64032;DHT22;50278;47.796;11.968;2023-01-28T08:00:59;-0.72;118.99
64032;DHT22;50278;47.796;11.968;2023-01-28T08:03:27;-0.68;118.99
64032;DHT22;50278;47.796;11.968;2023-01-28T08:05:53;-0.62;118.99
64032;DHT22;50278;47.796;11.968;2023-01-28T08:08:20;-0.59;118.99
64032;DHT22;50278;47.796;11.968;2023-01-28T08:10:45;-0.54;118.99
64032;DHT22;50278;47.796;11.968;2023-01-28T08:13:11;-0.49;118.99
64032;DHT22;50278;47.796;11.968;2023-01-28T08:15:38;-0.46;118.99
64032;DHT22;50278;47.796;11.968;2023-01-28T08:18:04;-0.43;118.99
64032;DHT22;50278;47.796;11.968;2023-01-28T08:20:30;-0.46;118.99
64032;DHT22;50278;47.796;11.968;2023-01-28T08:25:30;-0.29;118.99
64032;DHT22;50278;47.796;11.968;2023-01-28T08:27:55;-0.29;118.99
64032;DHT22;50278;47.796;11.968;2023-01-28T08:30:20;-0.36;118.99
64032;DHT22;50278;47.796;11.968;2023-01-28T08:32:46;-0.37;118.99
64032;DHT22;50278;47.796;11.968;2023-01-28T08:35:11;-0.35;118.99
64032;DHT22;50278;47.796;11.968;2023-01-28T08:37:37;-0.34;118.99
64032;DHT22;50278;47.796;11.968;2023-01-28T08:40:02;-0.40;118.99
64032;DHT22;50278;47.796;11.968;2023-01-28T08:42:38;-0.35;118.99
64032;DHT22;50278;47.796;11.968;2023-01-28T08:45:08;-0.35;118.99
64032;DHT22;50278;47.796;11.968;2023-01-28T08:47:46;-0.25;118.99
64032;DHT22;50278;47.796;11.968;2023-01-28T08:50:13;-0.29;118.99
64032;DHT22;50278;47.796;11.968;2023-01-28T08:52:39;-0.20;118.99
64032;DHT22;50278;47.796;11.968;2023-01-28T08:55:12;-0.14;118.99
64032;DHT22;50278;47.796;11.968;2023-01-28T08:57:40;-0.24;118.99
64032;DHT22;50278;47.796;11.968;2023-01-28T09:00:07;-0.28;118.99
64032;DHT22;50278;47.796;11.968;2023-01-28T09:02:39;-0.21;118.99
64032;DHT22;50278;47.796;11.968;2023-01-28T09:05:06;-0.19;118.99
64032;DHT22;50278;47.796;11.968;2023-01-28T09:07:36;-0.15;118.99
64032;DHT22;50278;47.796;11.968;2023-01-28T09:10:02;-0.12;118.99
64032;DHT22;50278;47.796;11.968;2023-01-28T09:12:27;-0.17;118.99
64032;DHT22;50278;47.796;11.968;2023-01-28T09:14:53;-0.21;118.99
64032;DHT22;50278;47.796;11.968;2023-01-28T09:17:19;-0.12;118.99
64032;DHT22;50278;47.796;11.968;2023-01-28T09:19:45;-0.03;118.99
64032;DHT22;50278;47.796;11.968;2023-01-28T09:22:10;-0.00;118.99
64032;DHT22;50278;47.796;11.968;2023-01-28T09:24:36;0.02;118.99
64032;DHT22;50278;47.796;11.968;2023-01-28T09:27:02;0.09;118.99
64032;DHT22;50278;47.796;11.968;2023-01-28T09:29:28;0.12;118.99
64032;DHT22;50278;47.796;11.968;2023-01-28T09:31:53;0.03;118.99
64032;DHT22;50278;47.796;11.968;2023-01-28T09:34:19;0.10;118.99
64032;DHT22;50278;47.796;11.968;2023-01-28T09:36:46;0.19;118.99
64032;DHT22;50278;47.796;11.968;2023-01-28T09:39:11;0.31;118.99
64032;DHT22;50278;47.796;11.968;2023-01-28T09:41:47;0.57;118.99
64032;DHT22;50278;47.796;11.968;2023-01-28T09:46:52;0.46;118.99
64032;DHT22;50278;47.796;11.968;2023-01-28T09:49:27;0.48;118.99
64032;DHT22;50278;47.796;11.968;2023-01-28T09:51:56;0.64;118.99
64032;DHT22;50278;47.796;11.968;2023-01-28T09:54:39;0.73;118.99
64032;DHT22;50278;47.796;11.968;2023-01-28T09:57:09;1.04;115.76
64032;DHT22;50278;47.796;11.968;2023-01-28T09:59:36;1.03;111.94
64032;DHT22;50278;47.796;11.968;2023-01-28T10:02:03;1.36;112.42
64032;DHT22;50278;47.796;11.968;2023-01-28T10:04:40;1.42;109.98
64032;DHT22;50278;47.796;11.968;2023-01-28T10:07:16;1.38;105.24
64032;DHT22;50278;47.796;11.968;2023-01-28T10:09:48;1.14;103.86
64032;DHT22;50278;47.796;11.968;2023-01-28T10:15:16;0.98;110.74
64032;DHT22;50278;47.796;11.968;2023-01-28T10:17:45;1.14;118.99
64032;DHT22;50278;47.796;11.968;2023-01-28T10:22:45;1.55;118.99
64032;DHT22;50278;47.796;11.968;2023-01-28T10:25:22;1.72;118.99
64032;DHT22;50278;47.796;11.968;2023-01-28T10:27:48;1.68;118.99
64032;DHT22;50278;47.796;11.968;2023-01-28T10:30:26;2.06;118.99
64032;DHT22;50278;47.796;11.968;2023-01-28T10:35:21;2.42;118.99
64032;DHT22;50278;47.796;11.968;2023-01-28T10:37:47;2.25;118.99
64032;DHT22;50278;47.796;11.968;2023-01-28T10:40:16;2.20;118.99
64032;DHT22;50278;47.796;11.968;2023-01-28T10:42:42;1.73;107.17
64032;DHT22;50278;47.796;11.968;2023-01-28T10:45:19;2.21;118.99
64032;DHT22;50278;47.796;11.968;2023-01-28T10:47:47;2.56;118.99
64032;DHT22;50278;47.796;11.968;2023-01-28T10:50:19;1.95;118.99
64032;DHT22;50278;47.796;11.968;2023-01-28T10:52:53;2.17;118.99
64032;DHT22;50278;47.796;11.968;2023-01-28T10:55:18;2.59;118.99
64032;DHT22;50278;47.796;11.968;2023-01-28T10:57:44;2.56;118.99
64032;DHT22;50278;47.796;11.968;2023-01-28T11:00:29;2.60;118.99
64032;DHT22;50278;47.796;11.968;2023-01-28T11:02:56;2.71;115.93
64032;DHT22;50278;47.796;11.968;2023-01-28T11:05:23;2.17;118.99
64032;DHT22;50278;47.796;11.968;2023-01-28T11:08:01;2.56;118.99
64032;DHT22;50278;47.796;11.968;2023-01-28T11:10:31;2.65;118.99
64032;DHT22;50278;47.796;11.968;2023-01-28T11:12:58;2.76;118.36
64032;DHT22;50278;47.796;11.968;2023-01-28T11:15:24;2.72;112.78
64032;DHT22;50278;47.796;11.968;2023-01-28T11:17:53;3.18;113.66
64032;DHT22;50278;47.796;11.968;2023-01-28T11:20:21;2.90;116.25
64032;DHT22;50278;47.796;11.968;2023-01-28T11:22:48;3.46;113.89
64032;DHT22;50278;47.796;11.968;2023-01-28T11:27:49;4.02;118.99
64032;DHT22;50278;47.796;11.968;2023-01-28T11:32:57;3.91;109.09
64032;DHT22;50278;47.796;11.968;2023-01-28T11:35:27;3.86;114.19
64032;DHT22;50278;47.796;11.968;2023-01-28T11:37:54;4.60;112.75
64032;DHT22;50278;47.796;11.968;2023-01-28T11:40:20;4.83;89.71
64032;DHT22;50278;47.796;11.968;2023-01-28T11:42:46;4.59;105.58
64032;DHT22;50278;47.796;11.968;2023-01-28T11:45:17;4.26;91.46
64032;DHT22;50278;47.796;11.968;2023-01-28T11:47:47;3.92;107.58
64032;DHT22;50278;47.796;11.968;2023-01-28T11:50:23;3.59;114.67
64032;DHT22;50278;47.796;11.968;2023-01-28T11:55:24;3.48;79.12
64032;DHT22;50278;47.796;11.968;2023-01-28T11:58:01;3.70;77.05
64032;DHT22;50278;47.796;11.968;2023-01-28T12:00:37;3.71;73.83
64032;DHT22;50278;47.796;11.968;2023-01-28T12:05:54;3.33;72.90
64032;DHT22;50278;47.796;11.968;2023-01-28T12:08:36;3.29;69.94
64032;DHT22;50278;47.796;11.968;2023-01-28T12:23:54;3.68;61.49
64032;DHT22;50278;47.796;11.968;2023-01-28T12:34:22;2.79;65.40
64032;DHT22;50278;47.796;11.968;2023-01-28T12:39:54;2.71;67.51
64032;DHT22;50278;47.796;11.968;2023-01-28T12:42:35;2.79;68.77
64032;DHT22;50278;47.796;11.968;2023-01-28T12:47:57;2.20;67.98
64032;DHT22;50278;47.796;11.968;2023-01-28T12:50:30;1.98;70.72
64032;DHT22;50278;47.796;11.968;2023-01-28T12:52:59;1.73;72.08
64032;DHT22;50278;47.796;11.968;2023-01-28T12:55:36;1.83;70.51
64032;DHT22;50278;47.796;11.968;2023-01-28T12:58:04;1.99;68.49
64032;DHT22;50278;47.796;11.968;2023-01-28T13:03:47;1.84;71.57
64032;DHT22;50278;47.796;11.968;2023-01-28T13:05:49;1.71;72.61
64032;DHT22;50278;47.796;11.968;2023-01-28T13:10:42;1.65;74.25
64032;DHT22;50278;47.796;11.968;2023-01-28T13:15:52;1.55;73.98
64032;DHT22;50278;47.796;11.968;2023-01-28T13:18:40;1.38;79.73
64032;DHT22;50278;47.796;11.968;2023-01-28T13:23:46;1.58;77.22
64032;DHT22;50278;47.796;11.968;2023-01-28T13:28:43;1.62;76.75
64032;DHT22;50278;47.796;11.968;2023-01-28T13:31:09;1.47;76.17
64032;DHT22;50278;47.796;11.968;2023-01-28T13:33:41;1.52;79.97
64032;DHT22;50278;47.796;11.968;2023-01-28T13:38:32;1.51;74.15
64032;DHT22;50278;47.796;11.968;2023-01-28T13:40:58;1.52;76.72
64032;DHT22;50278;47.796;11.968;2023-01-28T13:46:03;1.46;74.59
64032;DHT22;50278;47.796;11.968;2023-01-28T13:48:34;1.56;73.41
64032;DHT22;50278;47.796;11.968;2023-01-28T13:51:03;1.41;75.83
64032;DHT22;50278;47.796;11.968;2023-01-28T13:53:45;1.45;73.54
64032;DHT22;50278;47.796;11.968;2023-01-28T13:56:17;1.37;75.27
64032;DHT22;50278;47.796;11.968;2023-01-28T14:01:37;1.48;71.63
64032;DHT22;50278;47.796;11.968;2023-01-28T14:06:48;1.56;74.72
64032;DHT22;50278;47.796;11.968;2023-01-28T14:14:55;1.58;72.59
64032;DHT22;50278;47.796;11.968;2023-01-28T14:17:32;1.52;72.13
64032;DHT22;50278;47.796;11.968;2023-01-28T14:20:00;1.69;74.47
64032;DHT22;50278;47.796;11.968;2023-01-28T14:22:25;1.62;68.10
64032;DHT22;50278;47.796;11.968;2023-01-28T14:24:51;1.76;68.72
64032;DHT22;50278;47.796;11.968;2023-01-28T14:27:21;1.58;73.38
64032;DHT22;50278;47.796;11.968;2023-01-28T14:30:02;1.57;71.05
64032;DHT22;50278;47.796;11.968;2023-01-28T14:32:29;1.70;72.09
64032;DHT22;50278;47.796;11.968;2023-01-28T14:34:55;1.52;70.99
64032;DHT22;50278;47.796;11.968;2023-01-28T14:37:24;1.50;71.69
64032;DHT22;50278;47.796;11.968;2023-01-28T14:39:54;1.38;72.67
64032;DHT22;50278;47.796;11.968;2023-01-28T14:42:31;1.39;75.30
64032;DHT22;50278;47.796;11.968;2023-01-28T14:50:44;1.32;71.65
64032;DHT22;50278;47.796;11.968;2023-01-28T14:55:27;1.28;71.97
64032;DHT22;50278;47.796;11.968;2023-01-28T14:58:01;1.23;74.93
64032;DHT22;50278;47.796;11.968;2023-01-28T15:00:29;0.94;76.97
64032;DHT22;50278;47.796;11.968;2023-01-28T15:02:55;1.04;76.05
64032;DHT22;50278;47.796;11.968;2023-01-28T15:05:26;0.96;75.55
64032;DHT22;50278;47.796;11.968;2023-01-28T15:07:54;0.87;76.14
64032;DHT22;50278;47.796;11.968;2023-01-28T15:10:27;0.79;77.31
64032;DHT22;50278;47.796;11.968;2023-01-28T15:13:03;0.67;75.95
64032;DHT22;50278;47.796;11.968;2023-01-28T15:15:30;0.67;76.33
64032;DHT22;50278;47.796;11.968;2023-01-28T15:17:58;0.68;76.14
64032;DHT22;50278;47.796;11.968;2023-01-28T15:20:24;0.63;74.97
64032;DHT22;50278;47.796;11.968;2023-01-28T15:22:51;0.52;76.12
64032;DHT22;50278;47.796;11.968;2023-01-28T15:25:17;0.54;78.13
64032;DHT22;50278;47.796;11.968;2023-01-28T15:27:43;0.50;77.30
64032;DHT22;50278;47.796;11.968;2023-01-28T15:30:22;0.46;79.14
64032;DHT22;50278;47.796;11.968;2023-01-28T15:32:55;0.32;81.05
64032;DHT22;50278;47.796;11.968;2023-01-28T15:35:21;0.27;82.93
64032;DHT22;50278;47.796;11.968;2023-01-28T15:37:46;0.28;85.45
64032;DHT22;50278;47.796;11.968;2023-01-28T15:40:19;0.27;86.90
64032;DHT22;50278;47.796;11.968;2023-01-28T15:42:45;0.33;87.21
64032;DHT22;50278;47.796;11.968;2023-01-28T15:45:17;0.35;91.72
64032;DHT22;50278;47.796;11.968;2023-01-28T15:47:44;0.34;93.33
64032;DHT22;50278;47.796;11.968;2023-01-28T15:50:31;0.31;94.43
64032;DHT22;50278;47.796;11.968;2023-01-28T15:52:55;0.22;89.78
64032;DHT22;50278;47.796;11.968;2023-01-28T15:55:37;0.21;91.95
64032;DHT22;50278;47.796;11.968;2023-01-28T16:00:44;0.17;92.32
64032;DHT22;50278;47.796;11.968;2023-01-28T16:03:15;0.12;95.49
64032;DHT22;50278;47.796;11.968;2023-01-28T16:05:42;-0.03;92.54
64032;DHT22;50278;47.796;11.968;2023-01-28T16:08:20;-0.08;94.73
64032;DHT22;50278;47.796;11.968;2023-01-28T16:10:51;-0.03;96.41
64032;DHT22;50278;47.796;11.968;2023-01-28T16:13:20;-0.01;96.89
64032;DHT22;50278;47.796;11.968;2023-01-28T16:15:47;-0.09;98.84
64032;DHT22;50278;47.796;11.968;2023-01-28T16:18:18;-0.10;102.89
64032;DHT22;50278;47.796;11.968;2023-01-28T16:20:47;-0.15;109.84
64032;DHT22;50278;47.796;11.968;2023-01-28T16:23:21;-0.19;109.99
64032;DHT22;50278;47.796;11.968;2023-01-28T16:26:18;-0.21;111.07
64032;DHT22;50278;47.796;11.968;2023-01-28T16:28:34;-0.24;112.09
64032;DHT22;50278;47.796;11.968;2023-01-28T16:30:59;-0.26;114.16
64032;DHT22;50278;47.796;11.968;2023-01-28T16:33:25;-0.28;118.66
64032;DHT22;50278;47.796;11.968;2023-01-28T16:35:50;-0.30;118.15
64032;DHT22;50278;47.796;11.968;2023-01-28T16:38:16;-0.22;118.99
64032;DHT22;50278;47.796;11.968;2023-01-28T16:40:42;-0.22;118.99
64032;DHT22;50278;47.796;11.968;2023-01-28T16:43:12;-0.26;118.99
64032;DHT22;50278;47.796;11.968;2023-01-28T16:45:38;-0.24;118.99
64032;DHT22;50278;47.796;11.968;2023-01-28T16:48:03;-0.29;118.99
64032;DHT22;50278;47.796;11.968;2023-01-28T16:50:30;-0.39;118.99
64032;DHT22;50278;47.796;11.968;2023-01-28T16:52:56;-0.42;118.99
64032;DHT22;50278;47.796;11.968;2023-01-28T16:55:22;-0.41;118.99
64032;DHT22;50278;47.796;11.968;2023-01-28T16:57:48;-0.43;118.99
64032;DHT22;50278;47.796;11.968;2023-01-28T17:00:15;-0.42;118.99
64032;DHT22;50278;47.796;11.968;2023-01-28T17:02:42;-0.50;118.99
64032;DHT22;50278;47.796;11.968;2023-01-28T17:05:08;-0.44;118.99
64032;DHT22;50278;47.796;11.968;2023-01-28T17:07:35;-0.54;118.99
64032;DHT22;50278;47.796;11.968;2023-01-28T17:10:01;-0.57;118.99
64032;DHT22;50278;47.796;11.968;2023-01-28T17:12:27;-0.59;118.99
64032;DHT22;50278;47.796;11.968;2023-01-28T17:14:52;-0.57;118.99
64032;DHT22;50278;47.796;11.968;2023-01-28T17:17:18;-0.53;118.99